createdAt,value
2018-06-29T00:00:08.746Z,7.53
2018-06-29T00:02:37.792Z,6.60
2018-06-29T00:05:07.782Z,6.30
2018-06-29T00:07:36.793Z,6.33
2018-06-29T00:10:06.499Z,7.17
2018-06-29T00:12:35.561Z,5.80
2018-06-29T00:15:04.569Z,6.97
2018-06-29T00:17:33.513Z,5.80
2018-06-29T00:20:02.476Z,5.40
2018-06-29T00:22:31.549Z,4.37
2018-06-29T00:25:00.598Z,5.90
2018-06-29T00:27:29.671Z,4.60
2018-06-29T00:29:58.713Z,4.10
2018-06-29T00:32:27.667Z,4.20
2018-06-29T00:34:56.645Z,3.60
2018-06-29T00:37:25.627Z,4.03
2018-06-29T00:39:54.652Z,3.20
2018-06-29T00:42:23.728Z,3.43
2018-06-29T00:44:52.714Z,4.27
2018-06-29T00:47:21.673Z,4.50
2018-06-29T00:49:50.700Z,3.93
2018-06-29T00:52:19.713Z,3.60
2018-06-29T00:54:48.746Z,3.50
2018-06-29T00:57:17.783Z,3.17
2018-06-29T00:59:46.760Z,3.77
2018-06-29T01:02:15.770Z,3.13
2018-06-29T01:04:44.745Z,3.37
2018-06-29T01:07:13.753Z,3.03
2018-06-29T01:09:42.909Z,3.40
2018-06-29T01:12:11.941Z,2.90
2018-06-29T01:14:40.965Z,3.50
2018-06-29T01:17:10.065Z,4.30
2018-06-29T01:19:39.105Z,2.60
2018-06-29T01:22:08.140Z,2.67
2018-06-29T01:24:37.100Z,2.80
2018-06-29T01:27:06.140Z,2.80
2018-06-29T01:29:35.092Z,2.70
2018-06-29T01:32:04.105Z,3.20
2018-06-29T01:34:33.122Z,3.23
2018-06-29T01:37:02.097Z,3.27
2018-06-29T01:39:31.140Z,3.57
2018-06-29T01:42:00.204Z,3.60
2018-06-29T01:44:29.270Z,3.43
2018-06-29T01:46:58.293Z,3.50
2018-06-29T01:49:27.369Z,3.70
2018-06-29T01:51:56.389Z,3.10
2018-06-29T01:54:25.408Z,2.83
2018-06-29T01:56:54.349Z,2.73
2018-06-29T01:59:23.365Z,3.63
2018-06-29T02:01:52.385Z,3.70
2018-06-29T02:04:21.367Z,3.50
2018-06-29T02:06:50.309Z,4.13
2018-06-29T02:09:19.346Z,4.17
2018-06-29T02:11:48.307Z,10.00
2018-06-29T02:14:17.256Z,9.13
2018-06-29T02:16:46.296Z,9.93
2018-06-29T02:19:15.336Z,8.37
2018-06-29T02:21:44.322Z,8.63
2018-06-29T02:24:13.415Z,7.90
2018-06-29T02:26:42.436Z,9.60
2018-06-29T02:29:11.478Z,10.43
2018-06-29T02:31:40.542Z,10.20
2018-06-29T02:34:09.585Z,9.83
2018-06-29T02:36:38.593Z,10.33
2018-06-29T02:39:10.509Z,12.30
2018-06-29T02:41:39.633Z,9.20
2018-06-29T02:44:08.680Z,6.33
2018-06-29T02:46:37.877Z,7.40
2018-06-29T02:49:06.928Z,6.20
2018-06-29T02:51:36.214Z,6.97
2018-06-29T02:54:05.654Z,6.50
2018-06-29T02:56:34.774Z,5.00
2018-06-29T02:59:03.798Z,4.70
2018-06-29T03:01:32.832Z,4.80
2018-06-29T03:04:01.939Z,4.47
2018-06-29T03:06:30.960Z,3.80
2018-06-29T03:09:00.046Z,4.23
2018-06-29T03:11:29.084Z,3.53
2018-06-29T03:13:58.113Z,3.50
2018-06-29T03:16:27.141Z,3.03
2018-06-29T03:18:56.096Z,3.77
2018-06-29T03:21:25.176Z,7.07
2018-06-29T03:23:54.193Z,4.80
2018-06-29T03:26:23.146Z,3.70
2018-06-29T03:28:52.160Z,4.03
2018-06-29T03:31:21.103Z,3.00
2018-06-29T03:33:50.084Z,3.60
2018-06-29T03:36:19.030Z,3.97
2018-06-29T03:38:48.075Z,3.50
2018-06-29T03:41:17.312Z,3.67
2018-06-29T03:43:46.333Z,4.10
2018-06-29T03:46:15.305Z,8.80
2018-06-29T03:48:44.322Z,3.97
2018-06-29T03:51:13.296Z,3.67
2018-06-29T03:53:42.245Z,3.80
2018-06-29T03:56:11.220Z,5.60
2018-06-29T03:58:40.200Z,12.60
2018-06-29T04:01:09.290Z,12.17
2018-06-29T04:03:38.372Z,9.00
2018-06-29T04:06:07.422Z,10.53
2018-06-29T04:08:36.436Z,6.60
2018-06-29T04:11:05.479Z,4.90
2018-06-29T04:13:34.509Z,5.53
2018-06-29T04:16:03.471Z,6.77
2018-06-29T04:18:32.454Z,5.20
2018-06-29T04:21:01.425Z,4.83
2018-06-29T04:23:30.605Z,4.47
2018-06-29T04:25:59.573Z,3.50
2018-06-29T04:28:28.697Z,3.33
2018-06-29T04:30:57.648Z,2.73
2018-06-29T04:33:26.615Z,2.80
2018-06-29T04:35:55.681Z,2.33
2018-06-29T04:38:24.667Z,2.53
2018-06-29T04:40:53.732Z,2.30
2018-06-29T04:43:22.748Z,2.17
2018-06-29T04:45:51.725Z,2.77
2018-06-29T04:48:20.685Z,2.40
2018-06-29T04:50:49.786Z,1.67
2018-06-29T04:53:18.936Z,2.07
2018-06-29T04:55:47.957Z,1.77
2018-06-29T04:58:17.005Z,1.53
2018-06-29T05:00:45.976Z,1.80
2018-06-29T05:03:15.026Z,1.23
2018-06-29T05:05:44.037Z,2.30
2018-06-29T05:08:13.068Z,1.50
2018-06-29T05:10:42.092Z,3.07
2018-06-29T05:13:11.279Z,2.60
2018-06-29T05:15:40.272Z,2.63
2018-06-29T05:18:09.661Z,2.30
2018-06-29T05:20:38.689Z,2.23
2018-06-29T05:23:07.846Z,1.67
2018-06-29T05:25:36.921Z,2.60
2018-06-29T05:28:06.055Z,2.27
2018-06-29T05:30:35.129Z,2.50
2018-06-29T05:33:04.192Z,2.40
2018-06-29T05:35:33.235Z,4.17
2018-06-29T05:38:02.283Z,2.13
2018-06-29T05:40:31.252Z,1.87
2018-06-29T05:43:00.270Z,1.67
2018-06-29T05:45:29.217Z,2.40
2018-06-29T05:47:58.256Z,2.60
2018-06-29T05:50:27.262Z,2.20
2018-06-29T05:52:56.356Z,1.83
2018-06-29T05:55:25.497Z,1.80
2018-06-29T05:57:54.537Z,2.20
2018-06-29T06:00:24.099Z,2.00
2018-06-29T06:02:53.160Z,1.83
2018-06-29T06:05:22.238Z,2.13
2018-06-29T06:07:51.273Z,2.17
2018-06-29T06:10:20.271Z,2.23
2018-06-29T06:12:49.233Z,2.07
2018-06-29T06:15:18.277Z,2.50
2018-06-29T06:17:47.244Z,1.87
2018-06-29T06:20:16.621Z,2.13
2018-06-29T06:22:45.588Z,1.60
2018-06-29T06:25:14.683Z,3.37
2018-06-29T06:27:43.855Z,3.53
2018-06-29T06:30:12.840Z,2.77
2018-06-29T06:32:41.869Z,2.20
2018-06-29T06:35:10.894Z,2.83
2018-06-29T06:37:39.870Z,2.20
2018-06-29T06:40:08.848Z,2.63
2018-06-29T06:42:37.812Z,2.37
2018-06-29T06:45:06.816Z,3.00
2018-06-29T06:47:35.821Z,2.13
2018-06-29T06:50:04.910Z,3.00
2018-06-29T06:52:33.950Z,2.60
2018-06-29T06:55:02.942Z,2.63
2018-06-29T06:57:31.957Z,1.77
2018-06-29T07:00:00.988Z,2.60
2018-06-29T07:02:29.957Z,2.40
2018-06-29T07:04:58.992Z,2.30
2018-06-29T07:07:28.025Z,2.27
2018-06-29T07:09:57.132Z,3.40
2018-06-29T07:12:26.133Z,2.20
2018-06-29T07:14:55.248Z,1.77
2018-06-29T07:17:24.202Z,2.30
2018-06-29T07:19:53.214Z,1.93
2018-06-29T07:22:22.184Z,2.50
2018-06-29T07:24:51.185Z,1.53
2018-06-29T07:27:20.268Z,2.17
2018-06-29T07:29:49.216Z,1.87
2018-06-29T07:32:18.241Z,2.30
2018-06-29T07:34:47.301Z,1.90
2018-06-29T07:37:16.333Z,2.00
2018-06-29T07:39:45.302Z,1.60
2018-06-29T07:42:14.360Z,2.03
2018-06-29T07:44:43.316Z,2.73
2018-06-29T07:47:12.404Z,3.27
2018-06-29T07:49:41.332Z,4.40
2018-06-29T07:52:10.321Z,3.90
2018-06-29T07:54:39.436Z,4.00
2018-06-29T07:57:08.487Z,4.60
2018-06-29T07:59:37.971Z,3.90
2018-06-29T08:02:07.450Z,4.30
2018-06-29T08:04:37.480Z,4.17
2018-06-29T08:07:06.939Z,3.93
2018-06-29T08:09:36.464Z,4.30
2018-06-29T08:12:05.964Z,4.00
2018-06-29T08:14:36.505Z,4.73
2018-06-29T08:17:09.896Z,4.60
2018-06-29T08:19:39.512Z,3.43
2018-06-29T08:22:09.005Z,3.43
2018-06-29T08:24:48.336Z,4.40
2018-06-29T08:27:17.867Z,3.60
2018-06-29T08:29:47.569Z,4.60
2018-06-29T08:32:17.103Z,4.67
2018-06-29T08:34:46.791Z,4.43
2018-06-29T08:37:19.008Z,3.03
2018-06-29T08:39:48.909Z,4.13
2018-06-29T08:42:18.494Z,4.23
2018-06-29T08:44:48.111Z,4.33
2018-06-29T08:47:19.697Z,4.23
2018-06-29T08:49:49.341Z,4.03
2018-06-29T08:52:19.087Z,4.37
2018-06-29T08:54:48.881Z,3.60
2018-06-29T08:57:19.230Z,3.93
2018-06-29T08:59:48.865Z,4.47
2018-06-29T09:02:18.490Z,3.87
2018-06-29T09:04:48.657Z,3.47
2018-06-29T09:07:18.967Z,4.00
2018-06-29T09:09:49.519Z,4.10
2018-06-29T09:12:19.130Z,3.67
2018-06-29T09:14:48.683Z,4.40
2018-06-29T09:17:18.300Z,6.50
2018-06-29T09:19:48.261Z,5.47
2018-06-29T09:22:18.016Z,5.37
2018-06-29T09:24:47.484Z,3.70
2018-06-29T09:27:17.255Z,3.80
2018-06-29T09:29:47.004Z,3.77
2018-06-29T09:32:17.597Z,4.30
2018-06-29T09:34:47.412Z,4.30
2018-06-29T09:37:17.659Z,4.00
2018-06-29T09:39:47.262Z,3.20
2018-06-29T09:42:17.090Z,3.03
2018-06-29T09:44:47.619Z,3.33
2018-06-29T09:47:17.266Z,3.90
2018-06-29T09:49:46.999Z,3.00
2018-06-29T09:52:16.591Z,3.40
2018-06-29T09:54:46.315Z,3.00
2018-06-29T09:57:15.944Z,3.50
2018-06-29T09:59:46.404Z,2.83
2018-06-29T10:02:16.276Z,3.00
2018-06-29T10:04:46.203Z,3.43
2018-06-29T10:07:15.976Z,3.33
2018-06-29T10:09:45.844Z,3.20
2018-06-29T10:12:15.445Z,2.63
2018-06-29T10:14:45.152Z,1.93
2018-06-29T10:17:15.343Z,2.80
2018-06-29T10:19:45.817Z,2.90
2018-06-29T10:22:15.508Z,2.70
2018-06-29T10:24:45.293Z,1.87
2018-06-29T10:27:14.938Z,2.03
2018-06-29T10:29:44.817Z,2.43
2018-06-29T10:32:14.519Z,3.70
2018-06-29T10:34:44.176Z,2.50
2018-06-29T10:37:13.892Z,3.13
2018-06-29T10:39:44.267Z,2.47
2018-06-29T10:42:16.923Z,2.40
2018-06-29T10:44:46.617Z,3.03
2018-06-29T10:47:16.372Z,3.47
2018-06-29T10:49:46.503Z,3.50
2018-06-29T10:52:17.019Z,2.63
2018-06-29T10:54:47.648Z,3.00
2018-06-29T10:57:17.365Z,2.00
2018-06-29T10:59:47.479Z,1.90
2018-06-29T11:02:18.739Z,2.13
2018-06-29T11:04:48.341Z,2.00
2018-06-29T11:07:21.117Z,2.03
2018-06-29T11:09:51.644Z,1.73
2018-06-29T11:12:21.459Z,2.23
2018-06-29T11:14:52.053Z,2.13
2018-06-29T11:17:21.791Z,1.90
2018-06-29T11:19:51.510Z,2.40
2018-06-29T11:22:22.042Z,1.90
2018-06-29T11:24:51.954Z,1.67
2018-06-29T11:27:21.587Z,2.20
2018-06-29T11:29:51.576Z,2.50
2018-06-29T11:32:21.294Z,1.90
2018-06-29T11:34:51.920Z,2.60
2018-06-29T11:37:21.625Z,2.50
2018-06-29T11:39:51.486Z,4.43
2018-06-29T11:42:21.968Z,3.03
2018-06-29T11:44:52.699Z,2.70
2018-06-29T11:47:22.419Z,3.03
2018-06-29T11:49:52.222Z,2.47
2018-06-29T11:52:21.938Z,3.60
2018-06-29T11:54:51.850Z,3.10
2018-06-29T11:57:21.492Z,3.37
2018-06-29T11:59:51.885Z,2.57
2018-06-29T12:02:21.695Z,3.43
2018-06-29T12:04:51.445Z,4.00
2018-06-29T12:07:21.141Z,4.97
2018-06-29T12:09:51.824Z,4.77
2018-06-29T12:12:21.672Z,3.80
2018-06-29T12:14:51.954Z,4.27
2018-06-29T12:17:21.905Z,4.60
2018-06-29T12:19:52.354Z,5.23
2018-06-29T12:22:22.284Z,4.27
2018-06-29T12:24:51.990Z,4.03
2018-06-29T12:27:21.710Z,4.33
2018-06-29T12:29:51.464Z,4.50
2018-06-29T12:32:21.288Z,3.77
2018-06-29T12:34:51.039Z,3.93
2018-06-29T12:37:21.428Z,3.70
2018-06-29T12:39:51.243Z,4.00
2018-06-29T12:42:21.056Z,4.50
2018-06-29T12:44:50.762Z,5.20
2018-06-29T12:47:19.889Z,6.33
2018-06-29T12:49:48.851Z,6.10
2018-06-29T12:52:17.929Z,6.07
2018-06-29T12:54:47.081Z,5.90
2018-06-29T12:57:16.133Z,6.50
2018-06-29T12:59:45.108Z,6.60
2018-06-29T13:02:14.172Z,5.33
2018-06-29T13:04:43.147Z,5.17
2018-06-29T13:07:12.211Z,6.40
2018-06-29T13:09:41.160Z,5.50
2018-06-29T13:12:10.123Z,5.50
2018-06-29T13:14:39.237Z,5.90
2018-06-29T13:17:08.236Z,5.50
2018-06-29T13:19:37.265Z,5.50
2018-06-29T13:22:06.292Z,5.17
2018-06-29T13:24:35.262Z,6.10
2018-06-29T13:27:04.401Z,5.60
2018-06-29T13:29:33.504Z,4.63
2018-06-29T13:32:02.458Z,5.20
2018-06-29T13:34:31.473Z,6.33
2018-06-29T13:37:00.527Z,6.60
2018-06-29T13:39:29.653Z,6.87
2018-06-29T13:41:58.574Z,5.90
2018-06-29T13:44:27.575Z,5.37
2018-06-29T13:46:56.556Z,7.07
2018-06-29T13:49:25.597Z,7.47
2018-06-29T13:51:54.570Z,7.10
2018-06-29T13:54:23.622Z,6.50
2018-06-29T13:56:52.741Z,6.93
2018-06-29T13:59:21.869Z,7.63
2018-06-29T14:01:50.930Z,7.30
2018-06-29T14:04:20.000Z,7.40
2018-06-29T14:06:49.005Z,7.87
2018-06-29T14:09:18.013Z,7.17
2018-06-29T14:11:47.037Z,7.80
2018-06-29T14:14:16.060Z,6.77
2018-06-29T14:16:45.080Z,7.93
2018-06-29T14:19:14.173Z,7.57
2018-06-29T14:21:43.897Z,9.00
2018-06-29T14:24:12.969Z,8.70
2018-06-29T14:26:41.993Z,7.90
2018-06-29T14:29:11.195Z,8.77
2018-06-29T14:31:40.181Z,8.53
2018-06-29T14:34:09.124Z,8.60
2018-06-29T14:36:38.089Z,9.97
2018-06-29T14:39:09.242Z,10.07
2018-06-29T14:41:38.296Z,9.17
2018-06-29T14:44:07.848Z,8.33
2018-06-29T14:46:37.592Z,7.03
2018-06-29T14:49:06.632Z,8.73
2018-06-29T14:51:35.597Z,8.60
2018-06-29T14:54:04.652Z,8.60
2018-06-29T14:56:33.670Z,7.93
2018-06-29T14:59:02.653Z,7.80
2018-06-29T15:01:31.619Z,7.70
2018-06-29T15:04:00.636Z,8.17
2018-06-29T15:06:29.598Z,7.50
2018-06-29T15:08:58.603Z,6.40
2018-06-29T15:11:27.764Z,7.47
2018-06-29T15:13:57.631Z,6.50
2018-06-29T15:16:26.744Z,6.60
2018-06-29T15:18:55.708Z,7.07
2018-06-29T15:21:24.725Z,7.30
2018-06-29T15:23:53.748Z,7.90
2018-06-29T15:26:22.827Z,7.47
2018-06-29T15:28:51.780Z,8.47
2018-06-29T15:31:20.858Z,8.93
2018-06-29T15:33:49.997Z,8.90
2018-06-29T15:36:19.042Z,9.03
2018-06-29T15:38:48.076Z,9.73
2018-06-29T15:41:17.077Z,7.83
2018-06-29T15:43:46.039Z,7.50
2018-06-29T15:46:15.004Z,7.70
2018-06-29T15:48:44.017Z,8.87
2018-06-29T15:51:13.052Z,8.73
2018-06-29T15:53:42.117Z,9.00
2018-06-29T15:56:11.383Z,7.63
2018-06-29T15:58:40.339Z,7.83
2018-06-29T16:01:09.563Z,9.00
2018-06-29T16:03:38.556Z,8.13
2018-06-29T16:06:07.675Z,8.03
2018-06-29T16:08:36.676Z,7.10
2018-06-29T16:11:05.689Z,7.63
2018-06-29T16:13:34.694Z,7.47
2018-06-29T16:16:03.818Z,7.40
2018-06-29T16:18:32.833Z,8.87
2018-06-29T16:21:01.784Z,7.50
2018-06-29T16:23:30.865Z,7.30
2018-06-29T16:25:59.836Z,9.10
2018-06-29T16:28:28.785Z,8.60
2018-06-29T16:30:57.837Z,8.63
2018-06-29T16:33:26.867Z,7.97
2018-06-29T16:35:55.840Z,8.40
2018-06-29T16:38:24.925Z,8.23
2018-06-29T16:40:54.066Z,7.93
2018-06-29T16:43:23.089Z,7.63
2018-06-29T16:45:52.063Z,7.13
2018-06-29T16:48:20.996Z,7.47
2018-06-29T16:50:50.048Z,6.27
2018-06-29T16:53:19.060Z,7.70
2018-06-29T16:55:48.017Z,8.37
2018-06-29T16:58:17.084Z,7.83
2018-06-29T17:00:46.069Z,8.87
2018-06-29T17:03:15.069Z,7.80
2018-06-29T17:05:44.204Z,8.50
2018-06-29T17:08:13.124Z,6.93
2018-06-29T17:10:42.149Z,7.60
2018-06-29T17:13:11.164Z,8.90
2018-06-29T17:15:40.128Z,7.70
2018-06-29T17:18:09.133Z,8.53
2018-06-29T17:20:38.108Z,8.07
2018-06-29T17:23:07.567Z,7.07
2018-06-29T17:25:36.656Z,8.43
2018-06-29T17:28:05.771Z,7.97
2018-06-29T17:30:34.735Z,6.93
2018-06-29T17:33:03.679Z,7.70
2018-06-29T17:35:32.662Z,7.20
2018-06-29T17:38:01.685Z,8.03
2018-06-29T17:40:30.724Z,7.60
2018-06-29T17:42:59.666Z,8.17
2018-06-29T17:45:28.689Z,8.03
2018-06-29T17:47:57.641Z,8.63
2018-06-29T17:50:26.676Z,8.40
2018-06-29T17:52:55.701Z,7.77
2018-06-29T17:55:24.761Z,8.80
2018-06-29T17:57:53.711Z,7.40
2018-06-29T18:00:22.672Z,6.97
2018-06-29T18:02:51.620Z,6.10
2018-06-29T18:05:20.681Z,5.70
2018-06-29T18:07:49.598Z,6.47
2018-06-29T18:10:18.640Z,5.23
2018-06-29T18:12:47.761Z,5.70
2018-06-29T18:15:16.761Z,6.70
2018-06-29T18:17:45.802Z,5.20
2018-06-29T18:20:14.792Z,5.83
2018-06-29T18:22:43.748Z,4.57
2018-06-29T18:25:12.769Z,4.93
2018-06-29T18:27:41.673Z,5.63
2018-06-29T18:30:10.766Z,5.30
2018-06-29T18:32:39.715Z,5.43
2018-06-29T18:35:08.648Z,5.13
2018-06-29T18:37:37.619Z,5.10
2018-06-29T18:40:06.800Z,5.20
2018-06-29T18:42:35.794Z,6.70
2018-06-29T18:45:04.800Z,5.43
2018-06-29T18:47:33.881Z,5.00
2018-06-29T18:50:02.899Z,5.37
2018-06-29T18:52:31.932Z,8.87
2018-06-29T18:55:00.877Z,7.73
2018-06-29T18:57:30.859Z,7.80
2018-06-29T18:59:59.917Z,5.53
2018-06-29T19:02:29.046Z,6.33
2018-06-29T19:04:58.057Z,5.87
2018-06-29T19:07:27.081Z,19.77
2018-06-29T19:09:56.094Z,5.80
2018-06-29T19:12:25.184Z,7.40
2018-06-29T19:14:54.164Z,7.50
2018-06-29T19:17:23.136Z,7.07
2018-06-29T19:19:52.140Z,6.50
2018-06-29T19:22:21.141Z,7.10
2018-06-29T19:24:50.176Z,6.83
2018-06-29T19:27:19.253Z,6.87
2018-06-29T19:29:48.323Z,7.00
2018-06-29T19:32:17.296Z,5.77
2018-06-29T19:34:46.296Z,5.43
2018-06-29T19:37:15.333Z,5.70
2018-06-29T19:39:44.356Z,6.13
2018-06-29T19:42:13.408Z,5.73
2018-06-29T19:44:42.367Z,6.93
2018-06-29T19:47:11.389Z,6.20
2018-06-29T19:49:40.480Z,6.70
2018-06-29T19:52:09.552Z,9.50
2018-06-29T19:54:38.500Z,6.57
2018-06-29T19:57:07.880Z,6.30
2018-06-29T19:59:36.896Z,6.10
2018-06-29T20:02:05.911Z,5.40
2018-06-29T20:04:34.865Z,6.03
2018-06-29T20:07:03.902Z,5.40
2018-06-29T20:09:32.898Z,6.70
2018-06-29T20:12:01.871Z,6.17
2018-06-29T20:14:30.837Z,5.63
2018-06-29T20:16:59.867Z,6.73
2018-06-29T20:19:28.845Z,7.10
2018-06-29T20:21:57.844Z,6.20
2018-06-29T20:24:26.866Z,6.03
2018-06-29T20:26:55.919Z,6.07
2018-06-29T20:29:24.977Z,6.73
2018-06-29T20:31:54.034Z,7.60
2018-06-29T20:34:23.068Z,6.30
2018-06-29T20:36:52.013Z,6.87
2018-06-29T20:39:21.044Z,6.90
2018-06-29T20:41:50.053Z,5.93
2018-06-29T20:44:19.093Z,6.87
2018-06-29T20:46:48.137Z,6.57
2018-06-29T20:49:17.152Z,6.30
2018-06-29T20:51:46.221Z,7.03
2018-06-29T20:54:15.198Z,6.30
2018-06-29T20:56:44.248Z,7.30
2018-06-29T20:59:13.292Z,7.50
2018-06-29T21:01:42.317Z,8.03
2018-06-29T21:04:11.405Z,7.80
2018-06-29T21:06:40.378Z,7.20
2018-06-29T21:09:10.875Z,8.70
2018-06-29T21:11:40.159Z,7.67
2018-06-29T21:14:09.180Z,7.60
2018-06-29T21:16:38.123Z,7.57
2018-06-29T21:19:07.159Z,7.77
2018-06-29T21:21:36.098Z,6.93
2018-06-29T21:24:05.193Z,7.87
2018-06-29T21:26:34.237Z,8.00
2018-06-29T21:29:03.246Z,6.90
2018-06-29T21:31:33.158Z,7.50
2018-06-29T21:34:02.190Z,7.20
2018-06-29T21:36:31.273Z,7.70
2018-06-29T21:39:00.348Z,8.10
2018-06-29T21:41:29.324Z,7.53
2018-06-29T21:43:58.356Z,9.10
2018-06-29T21:46:27.377Z,8.30
2018-06-29T21:48:56.376Z,9.03
2018-06-29T21:51:25.395Z,8.93
2018-06-29T21:53:54.352Z,8.90
2018-06-29T21:56:23.400Z,9.10
2018-06-29T21:58:52.428Z,8.87
2018-06-29T22:01:21.392Z,8.70
2018-06-29T22:03:50.409Z,9.60
2018-06-29T22:06:19.429Z,9.23
2018-06-29T22:08:48.454Z,9.57
2018-06-29T22:11:17.465Z,8.80
2018-06-29T22:13:46.617Z,8.20
2018-06-29T22:16:15.576Z,8.23
2018-06-29T22:18:44.632Z,8.53
2018-06-29T22:21:13.679Z,7.73
2018-06-29T22:23:42.649Z,7.50
2018-06-29T22:26:12.572Z,9.20
2018-06-29T22:28:41.588Z,8.20
2018-06-29T22:31:10.630Z,7.97
2018-06-29T22:33:39.588Z,7.80
2018-06-29T22:36:08.709Z,8.13
2018-06-29T22:38:37.726Z,8.63
2018-06-29T22:41:06.811Z,7.57
2018-06-29T22:43:35.805Z,7.30
2018-06-29T22:46:04.873Z,7.30
2018-06-29T22:48:33.915Z,7.33
2018-06-29T22:51:02.860Z,8.17
2018-06-29T22:53:31.869Z,7.03
2018-06-29T22:56:00.886Z,8.00
2018-06-29T22:58:29.837Z,7.40
2018-06-29T23:00:58.841Z,7.40
2018-06-29T23:03:58.537Z,7.50
2018-06-29T23:06:27.609Z,7.53
2018-06-29T23:08:56.641Z,7.80
2018-06-29T23:11:25.605Z,6.20
2018-06-29T23:13:54.628Z,6.97
2018-06-29T23:16:23.567Z,7.63
2018-06-29T23:18:52.585Z,6.70
2018-06-29T23:21:21.593Z,7.40
2018-06-29T23:23:50.558Z,7.60
2018-06-29T23:26:19.499Z,7.83
2018-06-29T23:28:48.472Z,7.70
2018-06-29T23:31:17.426Z,7.17
2018-06-29T23:33:46.425Z,7.70
2018-06-29T23:36:15.434Z,6.40
2018-06-29T23:38:44.474Z,6.90
2018-06-29T23:41:13.506Z,7.60
2018-06-29T23:43:42.525Z,6.03
2018-06-29T23:46:11.529Z,7.00
2018-06-29T23:48:40.533Z,6.50
2018-06-29T23:51:09.498Z,6.33
2018-06-29T23:53:38.471Z,7.37
2018-06-29T23:56:07.469Z,6.40
2018-06-29T23:58:36.492Z,5.77
